This is the latest recevied weather packets stored in our database for station/object KA7EII-13. If no packets are shown the sender has not sent any weather packets the latest 10 day(s).
| Time | Temp. | Humidity | Pressure | Rain* | Wind** | Luminosity | Snow |
|---|---|---|---|---|---|---|---|
| 1777930696 | 23.33° C | 26% | 1096.1 hPa | 0 mm | - | 637 W/m² | - |
| 1777930392 | 22.78° C | 26% | 1096.1 hPa | 0 mm | - | 212 W/m² | - |
| 1777930090 | 23.89° C | 27% | 1096.3 hPa | 0 mm | - | 675 W/m² | - |
| 1777929786 | 23.89° C | 26% | 1096.1 hPa | 0 mm | - | 677 W/m² | - |
| 1777929484 | 24.44° C | 25% | 1096.3 hPa | 0 mm | - | 666 W/m² | - |
| 1777929179 | 24.44° C | 26% | 1096.3 hPa | 0 mm | - | 671 W/m² | - |
| 1777928877 | 23.89° C | 27% | 1096.2 hPa | 0 mm | - | 687 W/m² | - |
| 1777928574 | 23.89° C | 26% | 1096.2 hPa | 0 mm | - | 704 W/m² | - |
| 1777928271 | 23.33° C | 26% | 1096.6 hPa | 0 mm | - | 719 W/m² | - |
| 1777927969 | 23.89° C | 26% | 1096.6 hPa | 0 mm | - | 744 W/m² | - |
| 1777927667 | 23.89° C | 26% | 1096.5 hPa | 0 mm | - | 751 W/m² | - |
| 1777927365 | 23.33° C | 29% | 1096.7 hPa | 0 mm | - | 769 W/m² | - |
| 1777927064 | 23.33° C | 28% | 1096.8 hPa | 0 mm | - | 674 W/m² | - |
| 1777926761 | 22.78° C | 25% | 1096.9 hPa | 0 mm | - | 644 W/m² | - |
| 1777926461 | 23.33° C | 26% | 1097 hPa | 0 mm | - | 773 W/m² | - |
| 1777926158 | 23.33° C | 28% | 1096.9 hPa | 0 mm | - | 750 W/m² | - |
| 1777925855 | 22.22° C | 28% | 1097.3 hPa | 0 mm | - | 787 W/m² | - |
| 1777925552 | 22.78° C | 27% | 1096.6 hPa | 0 mm | - | 252 W/m² | - |
| 1777925250 | 23.33° C | 29% | 1097 hPa | 0 mm | - | 795 W/m² | - |
| 1777924946 | 22.78° C | 29% | 1097.4 hPa | 0 mm | - | 826 W/m² | - |
| 1777924642 | 22.78° C | 30% | 1097.3 hPa | 0 mm | - | 790 W/m² | - |
| 1777924338 | 23.33° C | 29% | 1097.4 hPa | 0 mm | - | 798 W/m² | - |
| 1777924036 | 22.78° C | 30% | 1097.4 hPa | 0 mm | - | 775 W/m² | - |
| 1777923732 | 22.78° C | 31% | 1097.6 hPa | 0 mm | - | 723 W/m² | - |
| 1777923428 | 22.78° C | 31% | 1097.6 hPa | 0 mm | - | 732 W/m² | - |
* Rain latest hour (hover to see other rain measurements)
** Current wind speed in m/s (hover to see current wind gust speed)